Terminal Aerodrome Forecast
Issued by NWS

Home | Current Version | Previous Version | Text Only | Print | Product List | Glossary On
Versions: 1 2 3 4 5 6 7 8 9 10 11 12 13 14 15 16 17 18 19 20 21 22 23 24 25 26 27 28 29 30 31 32 33
979
FTUS44 KLIX 232343
TAFHUM
TAF
KHUM 232343Z 2400/2424 15008KT P6SM VCSH SCT020 BKN090
      TEMPO 2400/2404 BKN020
     FM240500 16005KT P6SM VCSH BKN010
     FM241300 15007KT P6SM BKN015 PROB30 2413/2417 4SM TSRA BKN015CB
     FM241700 17011KT P6SM SCT020 BKN040 PROB30 2417/2423 4SM TSRA
      BKN015CB=

USA.gov is the U.S. government's official web portal to all federal, state and local government web resources and services.